Item Display Status Humidity-temperature Sensor

Elevation Above Sea Level: 3 m

 

Deployed Sensor

  • Serial Number: 20593482
  • NDBC Property Number: 45527
  • Start Date: 1/10/2023 (09:54:30 Z)
  • End Date: Currently Active
Relative Humidity [%]     6 entries per hour
Showing data from 6/19/2024 (09:00:00 Z) to 6/18/2024 (00:00:01 Z)
Previous Next [ Day | 3-Days | 7-Days ]
First Last
Prev [ Day | 3-Days | 7-Days ] Next
First Last

Start Time:     :
End Time:     :     
Time (in GMT) :00 :50 :40 :30 :20 :10
Previous Next [ Day | 3-Days | 7-Days ]
First Last
Prev [ Day | 3-Days | 7-Days ] Next
First Last


123 => good data
MM => data is determined as missing
-- => data not received/configured
Back to Top Back to Top
6/19/2024 09:00 to 8:10 97.66 97.56 97.52 97.40 97.32 97.22
6/19/2024 08:00 to 7:10 97.10 96.98 96.92 96.84 96.74 96.68
6/19/2024 07:00 to 6:10 96.51 96.43 96.37 96.19 96.05 96.07
6/19/2024 06:00 to 5:10 96.01 95.99 96.05 96.19 96.31 96.45
6/19/2024 05:00 to 4:10 96.59 96.76 96.82 96.82 96.88 96.88
6/19/2024 04:00 to 3:10 96.78 96.74 96.64 96.55 96.53 96.55
6/19/2024 03:00 to 2:10 96.53 96.55 96.66 96.74 96.82 96.90
6/19/2024 02:00 to 1:10 96.90 96.84 96.72 96.53 96.29 96.09
6/19/2024 01:00 to 0:10 95.83 95.61 95.39 95.15 94.97 95.01
6/19/2024 00:00 to 23:10 94.93 94.99 94.95 94.77 94.53 94.17
6/18/2024 23:00 to 22:10 94.07 93.89 93.99 94.11 94.03 94.13
6/18/2024 22:00 to 21:10 94.29 94.51 95.03 95.05 95.11 95.09
6/18/2024 21:00 to 20:10 95.29 95.41 95.27 95.07 94.83 94.73
6/18/2024 20:00 to 19:10 94.53 94.61 94.75 95.03 95.23 95.39
6/18/2024 19:00 to 18:10 95.55 95.77 95.95 96.19 96.45 96.62
6/18/2024 18:00 to 17:10 96.76 97.00 97.10 97.20 97.26 97.32
6/18/2024 17:00 to 16:10 97.44 97.54 97.58 97.62 97.70 97.70
6/18/2024 16:00 to 15:10 97.72 97.72 97.68 97.64 97.64 97.62
6/18/2024 15:00 to 14:10 97.66 97.74 97.80 97.92 98.00 98.08
6/18/2024 14:00 to 13:10 98.12 98.20 98.30 98.46 98.70 98.82
6/18/2024 13:00 to 12:10 98.90 98.96 99.00 98.98 98.96 98.92
6/18/2024 12:00 to 11:10 98.90 98.88 98.88 98.90 98.94 98.98
6/18/2024 11:00 to 10:10 99.02 99.04 99.04 99.02 99.02 99.00
6/18/2024 10:00 to 9:10 98.98 98.94 98.90 98.86 98.84 98.78
6/18/2024 09:00 to 8:10 98.70 98.64 98.56 98.46 98.40 98.30
6/18/2024 08:00 to 7:10 98.22 98.14 98.04 97.96 97.86 97.76
6/18/2024 07:00 to 6:10 97.66 97.58 97.46 97.32 97.18 97.06
6/18/2024 06:00 to 5:10 96.92 96.82 96.72 96.64 96.62 96.57
6/18/2024 05:00 to 4:10 96.66 96.68 96.72 96.80 96.98 97.14
6/18/2024 04:00 to 3:10 97.14 97.14 97.18 97.08 97.08 97.12
6/18/2024 03:00 to 2:10 97.26 97.46 97.64 97.66 97.54 97.38
6/18/2024 02:00 to 1:10 97.24 97.16 97.16 97.04 96.78 96.74
6/18/2024 01:00 to 0:10 96.82 97.08 97.76 97.98 98.08 98.02

 

 

 

Air Temperature [°C]     6 entries per hour
Showing data from 6/19/2024 (09:00:00 Z) to 6/18/2024 (00:00:01 Z)
Previous Next [ Day | 3-Days | 7-Days ]
First Last
Prev [ Day | 3-Days | 7-Days ] Next
First Last

Start Time:     :
End Time:     :     
Time (in GMT) :00 :50 :40 :30 :20 :10
Previous Next [ Day | 3-Days | 7-Days ]
First Last
Prev [ Day | 3-Days | 7-Days ] Next
First Last


123 => good data
MM => data is determined as missing
-- => data not received/configured
Back to Top Back to Top
6/19/2024 09:00 to 8:10 21.88 21.88 21.91 21.93 21.92 21.93
6/19/2024 08:00 to 7:10 21.94 21.94 21.97 21.95 21.99 22.02
6/19/2024 07:00 to 6:10 22.03 22.07 22.07 22.11 22.12 22.10
6/19/2024 06:00 to 5:10 22.13 22.14 22.15 22.14 22.15 22.16
6/19/2024 05:00 to 4:10 22.15 22.17 22.18 22.20 22.20 22.23
6/19/2024 04:00 to 3:10 22.25 22.25 22.28 22.28 22.28 22.29
6/19/2024 03:00 to 2:10 22.30 22.29 22.29 22.29 22.30 22.30
6/19/2024 02:00 to 1:10 22.34 22.33 22.35 22.35 22.37 22.38
6/19/2024 01:00 to 0:10 22.42 22.39 22.47 22.47 22.47 22.55
6/19/2024 00:00 to 23:10 22.59 22.51 22.52 22.56 22.57 22.62
6/18/2024 23:00 to 22:10 22.63 22.72 22.63 22.66 22.69 22.64
6/18/2024 22:00 to 21:10 22.74 22.67 22.63 22.60 22.67 22.68
6/18/2024 21:00 to 20:10 22.58 22.64 22.70 22.62 22.61 22.68
6/18/2024 20:00 to 19:10 22.59 22.67 22.63 22.48 22.48 22.58
6/18/2024 19:00 to 18:10 22.47 22.45 22.37 22.38 22.36 22.32
6/18/2024 18:00 to 17:10 22.30 22.25 22.24 22.19 22.21 22.14
6/18/2024 17:00 to 16:10 22.14 22.15 22.11 22.05 22.06 22.00
6/18/2024 16:00 to 15:10 22.05 22.02 22.02 22.03 22.05 22.09
6/18/2024 15:00 to 14:10 22.12 22.10 22.16 22.13 22.12 22.06
6/18/2024 14:00 to 13:10 22.06 22.06 22.07 22.06 22.09 21.99
6/18/2024 13:00 to 12:10 21.95 21.87 21.83 21.80 21.78 21.78
6/18/2024 12:00 to 11:10 21.80 21.81 21.80 21.77 21.75 21.75
6/18/2024 11:00 to 10:10 21.74 21.74 21.74 21.74 21.72 21.72
6/18/2024 10:00 to 9:10 21.70 21.70 21.70 21.69 21.73 21.75
6/18/2024 09:00 to 8:10 21.75 21.77 21.79 21.78 21.82 21.83
6/18/2024 08:00 to 7:10 21.85 21.87 21.90 21.91 21.93 21.94
6/18/2024 07:00 to 6:10 21.95 21.97 22.00 22.02 22.04 22.08
6/18/2024 06:00 to 5:10 22.08 22.10 22.11 22.11 22.11 22.11
6/18/2024 05:00 to 4:10 22.09 22.13 22.14 22.11 22.12 22.12
6/18/2024 04:00 to 3:10 22.19 22.16 22.24 22.24 22.24 22.22
6/18/2024 03:00 to 2:10 22.20 22.19 22.14 22.18 22.17 22.14
6/18/2024 02:00 to 1:10 22.08 22.02 21.96 22.06 22.29 22.26
6/18/2024 01:00 to 0:10 22.23 22.11 22.04 22.00 22.03 22.01